sensor_id;sensor_type;location;lat;lon;timestamp;P1;durP1;ratioP1;P2;durP2;ratioP2
75379;SDS011;65641;44.714;37.756;2024-03-02T00:00:50;6.55;;;4.05;;
75379;SDS011;65641;44.714;37.756;2024-03-02T00:01:54;9.30;;;6.55;;
75379;SDS011;65641;44.714;37.756;2024-03-02T00:02:58;6.57;;;4.80;;
75379;SDS011;65641;44.714;37.756;2024-03-02T00:04:03;6.35;;;5.20;;
75379;SDS011;65641;44.714;37.756;2024-03-02T00:05:10;6.90;;;5.57;;
75379;SDS011;65641;44.714;37.756;2024-03-02T00:06:18;7.10;;;5.40;;
75379;SDS011;65641;44.714;37.756;2024-03-02T00:07:24;6.32;;;5.45;;
75379;SDS011;65641;44.714;37.756;2024-03-02T00:08:28;7.57;;;5.63;;
75379;SDS011;65641;44.714;37.756;2024-03-02T00:09:32;6.03;;;5.40;;
75379;SDS011;65641;44.714;37.756;2024-03-02T00:10:39;5.90;;;5.28;;
75379;SDS011;65641;44.714;37.756;2024-03-02T00:11:43;6.20;;;5.45;;
75379;SDS011;65641;44.714;37.756;2024-03-02T00:12:47;5.80;;;5.07;;
75379;SDS011;65641;44.714;37.756;2024-03-02T00:13:54;6.45;;;3.63;;
75379;SDS011;65641;44.714;37.756;2024-03-02T00:14:58;6.30;;;5.15;;
75379;SDS011;65641;44.714;37.756;2024-03-02T00:16:06;6.10;;;4.80;;
75379;SDS011;65641;44.714;37.756;2024-03-02T00:17:13;6.07;;;5.18;;
75379;SDS011;65641;44.714;37.756;2024-03-02T00:18:25;6.20;;;5.60;;
75379;SDS011;65641;44.714;37.756;2024-03-02T00:19:29;6.07;;;4.88;;
75379;SDS011;65641;44.714;37.756;2024-03-02T00:20:32;5.55;;;4.72;;
75379;SDS011;65641;44.714;37.756;2024-03-02T00:21:37;6.13;;;4.55;;
75379;SDS011;65641;44.714;37.756;2024-03-02T00:22:40;4.90;;;4.20;;
75379;SDS011;65641;44.714;37.756;2024-03-02T00:23:44;5.30;;;4.05;;
75379;SDS011;65641;44.714;37.756;2024-03-02T00:24:48;5.53;;;4.90;;
75379;SDS011;65641;44.714;37.756;2024-03-02T00:25:52;6.53;;;4.78;;
75379;SDS011;65641;44.714;37.756;2024-03-02T00:26:57;6.28;;;5.40;;
75379;SDS011;65641;44.714;37.756;2024-03-02T00:28:00;5.45;;;4.75;;
75379;SDS011;65641;44.714;37.756;2024-03-02T00:29:04;5.18;;;4.43;;
75379;SDS011;65641;44.714;37.756;2024-03-02T00:31:59;5.60;;;5.07;;
75379;SDS011;65641;44.714;37.756;2024-03-02T00:33:06;5.07;;;3.17;;
75379;SDS011;65641;44.714;37.756;2024-03-02T00:34:10;6.13;;;4.47;;
75379;SDS011;65641;44.714;37.756;2024-03-02T00:35:19;5.05;;;3.95;;
75379;SDS011;65641;44.714;37.756;2024-03-02T00:36:25;4.70;;;3.33;;
75379;SDS011;65641;44.714;37.756;2024-03-02T00:37:30;4.82;;;4.32;;
75379;SDS011;65641;44.714;37.756;2024-03-02T00:38:34;4.85;;;3.03;;
75379;SDS011;65641;44.714;37.756;2024-03-02T00:39:42;4.97;;;4.47;;
75379;SDS011;65641;44.714;37.756;2024-03-02T00:40:46;4.88;;;3.20;;
75379;SDS011;65641;44.714;37.756;2024-03-02T00:41:49;6.25;;;5.70;;
75379;SDS011;65641;44.714;37.756;2024-03-02T00:42:54;5.00;;;3.30;;
75379;SDS011;65641;44.714;37.756;2024-03-02T00:44:00;6.15;;;5.55;;
75379;SDS011;65641;44.714;37.756;2024-03-02T00:45:07;5.43;;;4.18;;
75379;SDS011;65641;44.714;37.756;2024-03-02T00:46:20;5.05;;;3.33;;
75379;SDS011;65641;44.714;37.756;2024-03-02T00:47:24;5.13;;;4.18;;
75379;SDS011;65641;44.714;37.756;2024-03-02T00:48:27;5.13;;;3.67;;
75379;SDS011;65641;44.714;37.756;2024-03-02T00:49:34;6.15;;;4.05;;
75379;SDS011;65641;44.714;37.756;2024-03-02T00:50:41;5.35;;;4.35;;
75379;SDS011;65641;44.714;37.756;2024-03-02T00:51:45;6.35;;;4.53;;
75379;SDS011;65641;44.714;37.756;2024-03-02T00:52:51;4.38;;;3.92;;
75379;SDS011;65641;44.714;37.756;2024-03-02T00:53:55;4.75;;;3.95;;
75379;SDS011;65641;44.714;37.756;2024-03-02T00:55:01;4.40;;;4.00;;
75379;SDS011;65641;44.714;37.756;2024-03-02T00:56:05;4.28;;;3.88;;
75379;SDS011;65641;44.714;37.756;2024-03-02T00:57:13;4.25;;;3.58;;
75379;SDS011;65641;44.714;37.756;2024-03-02T00:58:18;4.95;;;3.33;;
75379;SDS011;65641;44.714;37.756;2024-03-02T00:59:22;5.03;;;4.32;;
75379;SDS011;65641;44.714;37.756;2024-03-02T01:00:26;5.75;;;3.92;;
75379;SDS011;65641;44.714;37.756;2024-03-02T01:01:29;4.40;;;3.58;;
75379;SDS011;65641;44.714;37.756;2024-03-02T01:02:33;5.70;;;2.90;;
75379;SDS011;65641;44.714;37.756;2024-03-02T01:03:38;5.05;;;4.40;;
75379;SDS011;65641;44.714;37.756;2024-03-02T01:04:41;4.90;;;3.47;;
75379;SDS011;65641;44.714;37.756;2024-03-02T01:05:45;5.22;;;4.18;;
75379;SDS011;65641;44.714;37.756;2024-03-02T01:06:49;5.00;;;3.97;;
75379;SDS011;65641;44.714;37.756;2024-03-02T01:07:53;4.78;;;3.17;;
75379;SDS011;65641;44.714;37.756;2024-03-02T01:08:57;4.65;;;4.20;;
75379;SDS011;65641;44.714;37.756;2024-03-02T01:10:00;5.20;;;4.13;;
75379;SDS011;65641;44.714;37.756;2024-03-02T01:11:04;4.65;;;4.00;;
75379;SDS011;65641;44.714;37.756;2024-03-02T01:12:08;4.05;;;3.30;;
75379;SDS011;65641;44.714;37.756;2024-03-02T01:13:11;5.15;;;3.88;;
75379;SDS011;65641;44.714;37.756;2024-03-02T01:14:15;4.20;;;2.55;;
75379;SDS011;65641;44.714;37.756;2024-03-02T01:15:18;4.03;;;3.08;;
75379;SDS011;65641;44.714;37.756;2024-03-02T01:16:22;3.97;;;3.58;;
75379;SDS011;65641;44.714;37.756;2024-03-02T01:17:26;5.55;;;3.70;;
75379;SDS011;65641;44.714;37.756;2024-03-02T01:18:29;4.35;;;3.83;;
75379;SDS011;65641;44.714;37.756;2024-03-02T01:19:34;4.28;;;3.67;;
75379;SDS011;65641;44.714;37.756;2024-03-02T01:20:37;3.50;;;2.40;;
75379;SDS011;65641;44.714;37.756;2024-03-02T01:21:41;5.35;;;3.88;;
75379;SDS011;65641;44.714;37.756;2024-03-02T01:22:44;3.67;;;2.47;;
75379;SDS011;65641;44.714;37.756;2024-03-02T01:23:48;4.95;;;3.70;;
75379;SDS011;65641;44.714;37.756;2024-03-02T01:24:51;4.95;;;3.70;;
75379;SDS011;65641;44.714;37.756;2024-03-02T01:25:55;3.97;;;3.58;;
75379;SDS011;65641;44.714;37.756;2024-03-02T01:26:59;4.72;;;3.72;;
75379;SDS011;65641;44.714;37.756;2024-03-02T01:28:02;4.32;;;3.30;;
75379;SDS011;65641;44.714;37.756;2024-03-02T01:29:07;5.30;;;3.58;;
75379;SDS011;65641;44.714;37.756;2024-03-02T01:30:10;3.33;;;2.75;;
75379;SDS011;65641;44.714;37.756;2024-03-02T01:31:14;3.60;;;2.30;;
75379;SDS011;65641;44.714;37.756;2024-03-02T01:32:18;4.72;;;3.50;;
75379;SDS011;65641;44.714;37.756;2024-03-02T01:33:21;4.22;;;3.55;;
75379;SDS011;65641;44.714;37.756;2024-03-02T01:34:25;4.47;;;3.72;;
75379;SDS011;65641;44.714;37.756;2024-03-02T01:35:28;5.20;;;4.70;;
75379;SDS011;65641;44.714;37.756;2024-03-02T01:36:32;4.57;;;3.55;;
75379;SDS011;65641;44.714;37.756;2024-03-02T01:37:35;5.30;;;3.58;;
75379;SDS011;65641;44.714;37.756;2024-03-02T01:38:39;4.28;;;3.20;;
75379;SDS011;65641;44.714;37.756;2024-03-02T01:39:42;4.60;;;3.58;;
75379;SDS011;65641;44.714;37.756;2024-03-02T01:40:46;3.63;;;2.38;;
75379;SDS011;65641;44.714;37.756;2024-03-02T01:41:50;4.25;;;3.85;;
75379;SDS011;65641;44.714;37.756;2024-03-02T01:42:53;4.45;;;3.95;;
75379;SDS011;65641;44.714;37.756;2024-03-02T01:43:58;3.97;;;3.30;;
75379;SDS011;65641;44.714;37.756;2024-03-02T01:45:02;3.95;;;2.53;;
75379;SDS011;65641;44.714;37.756;2024-03-02T01:46:10;3.58;;;2.63;;
75379;SDS011;65641;44.714;37.756;2024-03-02T01:47:13;4.75;;;3.83;;
75379;SDS011;65641;44.714;37.756;2024-03-02T01:48:17;4.40;;;3.20;;
75379;SDS011;65641;44.714;37.756;2024-03-02T01:49:22;5.65;;;3.60;;
75379;SDS011;65641;44.714;37.756;2024-03-02T01:50:28;3.65;;;3.35;;
75379;SDS011;65641;44.714;37.756;2024-03-02T01:51:34;5.30;;;3.58;;
75379;SDS011;65641;44.714;37.756;2024-03-02T01:52:38;3.60;;;3.30;;
75379;SDS011;65641;44.714;37.756;2024-03-02T01:53:42;4.05;;;3.65;;
75379;SDS011;65641;44.714;37.756;2024-03-02T01:54:45;4.90;;;4.45;;
75379;SDS011;65641;44.714;37.756;2024-03-02T01:55:49;4.18;;;3.47;;
75379;SDS011;65641;44.714;37.756;2024-03-02T01:56:52;4.20;;;3.25;;
75379;SDS011;65641;44.714;37.756;2024-03-02T01:57:56;5.10;;;3.45;;
75379;SDS011;65641;44.714;37.756;2024-03-02T01:59:01;4.47;;;3.65;;
75379;SDS011;65641;44.714;37.756;2024-03-02T02:00:06;3.47;;;3.05;;
75379;SDS011;65641;44.714;37.756;2024-03-02T02:01:12;4.88;;;3.72;;
75379;SDS011;65641;44.714;37.756;2024-03-02T02:02:17;3.95;;;3.55;;
75379;SDS011;65641;44.714;37.756;2024-03-02T02:03:20;4.70;;;3.72;;
75379;SDS011;65641;44.714;37.756;2024-03-02T02:04:24;4.78;;;3.30;;
75379;SDS011;65641;44.714;37.756;2024-03-02T02:05:30;3.90;;;2.10;;
75379;SDS011;65641;44.714;37.756;2024-03-02T02:06:34;4.60;;;3.42;;
75379;SDS011;65641;44.714;37.756;2024-03-02T02:07:38;4.63;;;3.22;;
75379;SDS011;65641;44.714;37.756;2024-03-02T02:08:43;4.32;;;3.92;;
75379;SDS011;65641;44.714;37.756;2024-03-02T02:09:46;4.50;;;3.38;;
75379;SDS011;65641;44.714;37.756;2024-03-02T02:10:50;3.60;;;3.30;;
75379;SDS011;65641;44.714;37.756;2024-03-02T02:11:53;3.85;;;3.45;;
75379;SDS011;65641;44.714;37.756;2024-03-02T02:12:57;3.70;;;2.88;;
75379;SDS011;65641;44.714;37.756;2024-03-02T02:14:00;4.38;;;3.80;;
75379;SDS011;65641;44.714;37.756;2024-03-02T02:15:20;3.80;;;2.63;;
75379;SDS011;65641;44.714;37.756;2024-03-02T02:16:28;3.15;;;2.85;;
75379;SDS011;65641;44.714;37.756;2024-03-02T02:17:32;3.72;;;2.40;;
75379;SDS011;65641;44.714;37.756;2024-03-02T02:18:35;3.78;;;3.38;;
75379;SDS011;65641;44.714;37.756;2024-03-02T02:19:40;3.78;;;2.92;;
75379;SDS011;65641;44.714;37.756;2024-03-02T02:20:44;4.82;;;3.35;;
75379;SDS011;65641;44.714;37.756;2024-03-02T02:21:47;4.53;;;2.22;;
75379;SDS011;65641;44.714;37.756;2024-03-02T02:22:57;4.50;;;3.85;;
75379;SDS011;65641;44.714;37.756;2024-03-02T02:24:05;5.13;;;3.17;;
75379;SDS011;65641;44.714;37.756;2024-03-02T02:25:09;4.82;;;3.17;;
75379;SDS011;65641;44.714;37.756;2024-03-02T02:26:12;3.95;;;3.55;;
75379;SDS011;65641;44.714;37.756;2024-03-02T02:27:16;4.80;;;3.58;;
75379;SDS011;65641;44.714;37.756;2024-03-02T02:28:19;7.05;;;3.55;;
75379;SDS011;65641;44.714;37.756;2024-03-02T02:29:23;4.38;;;3.30;;
75379;SDS011;65641;44.714;37.756;2024-03-02T02:30:30;4.65;;;4.07;;
75379;SDS011;65641;44.714;37.756;2024-03-02T02:31:38;4.22;;;3.15;;
75379;SDS011;65641;44.714;37.756;2024-03-02T02:32:44;4.10;;;3.10;;
75379;SDS011;65641;44.714;37.756;2024-03-02T02:33:49;4.18;;;3.38;;
75379;SDS011;65641;44.714;37.756;2024-03-02T02:34:52;3.67;;;2.30;;
75379;SDS011;65641;44.714;37.756;2024-03-02T02:35:56;5.03;;;3.53;;
75379;SDS011;65641;44.714;37.756;2024-03-02T02:37:00;3.85;;;3.45;;
75379;SDS011;65641;44.714;37.756;2024-03-02T02:38:04;3.90;;;3.50;;
75379;SDS011;65641;44.714;37.756;2024-03-02T02:39:11;4.20;;;3.72;;
75379;SDS011;65641;44.714;37.756;2024-03-02T02:40:16;3.92;;;2.92;;
75379;SDS011;65641;44.714;37.756;2024-03-02T02:41:22;3.80;;;2.10;;
75379;SDS011;65641;44.714;37.756;2024-03-02T02:42:25;4.07;;;2.95;;
75379;SDS011;65641;44.714;37.756;2024-03-02T02:43:29;3.58;;;2.72;;
75379;SDS011;65641;44.714;37.756;2024-03-02T02:44:32;3.97;;;3.58;;
75379;SDS011;65641;44.714;37.756;2024-03-02T02:45:35;4.07;;;3.22;;
75379;SDS011;65641;44.714;37.756;2024-03-02T02:46:39;4.28;;;3.75;;
75379;SDS011;65641;44.714;37.756;2024-03-02T02:47:44;4.22;;;3.83;;
75379;SDS011;65641;44.714;37.756;2024-03-02T02:48:48;4.55;;;3.47;;
75379;SDS011;65641;44.714;37.756;2024-03-02T02:49:51;4.78;;;3.60;;
75379;SDS011;65641;44.714;37.756;2024-03-02T02:50:56;4.95;;;4.13;;
75379;SDS011;65641;44.714;37.756;2024-03-02T02:52:00;3.92;;;3.28;;
75379;SDS011;65641;44.714;37.756;2024-03-02T02:53:03;4.35;;;3.38;;
75379;SDS011;65641;44.714;37.756;2024-03-02T02:54:07;4.18;;;3.78;;
75379;SDS011;65641;44.714;37.756;2024-03-02T02:55:11;4.95;;;3.75;;
75379;SDS011;65641;44.714;37.756;2024-03-02T02:56:15;4.30;;;3.53;;
75379;SDS011;65641;44.714;37.756;2024-03-02T02:57:19;4.95;;;4.32;;
75379;SDS011;65641;44.714;37.756;2024-03-02T02:58:22;4.43;;;3.60;;
75379;SDS011;65641;44.714;37.756;2024-03-02T02:59:26;5.22;;;4.10;;
75379;SDS011;65641;44.714;37.756;2024-03-02T03:00:29;4.35;;;2.40;;
75379;SDS011;65641;44.714;37.756;2024-03-02T03:01:33;4.28;;;3.33;;
75379;SDS011;65641;44.714;37.756;2024-03-02T03:02:37;4.07;;;3.20;;
75379;SDS011;65641;44.714;37.756;2024-03-02T03:03:41;6.07;;;4.00;;
75379;SDS011;65641;44.714;37.756;2024-03-02T03:04:45;4.95;;;4.45;;
75379;SDS011;65641;44.714;37.756;2024-03-02T03:05:48;4.70;;;2.63;;
75379;SDS011;65641;44.714;37.756;2024-03-02T03:06:52;4.72;;;3.50;;
75379;SDS011;65641;44.714;37.756;2024-03-02T03:07:56;3.92;;;2.47;;
75379;SDS011;65641;44.714;37.756;2024-03-02T03:08:59;4.15;;;3.63;;
75379;SDS011;65641;44.714;37.756;2024-03-02T03:10:03;6.15;;;4.35;;
75379;SDS011;65641;44.714;37.756;2024-03-02T03:11:07;5.50;;;4.38;;
75379;SDS011;65641;44.714;37.756;2024-03-02T03:12:11;5.75;;;3.67;;
75379;SDS011;65641;44.714;37.756;2024-03-02T03:13:14;5.65;;;4.28;;
75379;SDS011;65641;44.714;37.756;2024-03-02T03:14:18;5.72;;;3.90;;
75379;SDS011;65641;44.714;37.756;2024-03-02T03:15:22;3.60;;;2.55;;
75379;SDS011;65641;44.714;37.756;2024-03-02T03:16:26;4.55;;;2.70;;
75379;SDS011;65641;44.714;37.756;2024-03-02T03:17:29;5.32;;;4.40;;
75379;SDS011;65641;44.714;37.756;2024-03-02T03:18:33;5.35;;;4.60;;
75379;SDS011;65641;44.714;37.756;2024-03-02T03:19:38;5.53;;;4.45;;
75379;SDS011;65641;44.714;37.756;2024-03-02T03:20:41;5.07;;;4.15;;
75379;SDS011;65641;44.714;37.756;2024-03-02T03:21:45;4.93;;;3.95;;
75379;SDS011;65641;44.714;37.756;2024-03-02T03:22:48;5.93;;;4.82;;
75379;SDS011;65641;44.714;37.756;2024-03-02T03:23:52;5.43;;;3.10;;
75379;SDS011;65641;44.714;37.756;2024-03-02T03:24:55;5.13;;;4.05;;
75379;SDS011;65641;44.714;37.756;2024-03-02T03:25:59;5.70;;;4.13;;
75379;SDS011;65641;44.714;37.756;2024-03-02T03:27:03;5.10;;;4.57;;
75379;SDS011;65641;44.714;37.756;2024-03-02T03:28:07;5.97;;;3.78;;
75379;SDS011;65641;44.714;37.756;2024-03-02T03:29:12;6.72;;;4.55;;
75379;SDS011;65641;44.714;37.756;2024-03-02T03:30:16;6.32;;;5.05;;
75379;SDS011;65641;44.714;37.756;2024-03-02T03:31:19;5.15;;;4.25;;
75379;SDS011;65641;44.714;37.756;2024-03-02T03:32:23;6.13;;;4.85;;
75379;SDS011;65641;44.714;37.756;2024-03-02T03:33:27;5.93;;;4.63;;
75379;SDS011;65641;44.714;37.756;2024-03-02T03:34:34;5.82;;;4.50;;
75379;SDS011;65641;44.714;37.756;2024-03-02T03:35:37;5.95;;;3.67;;
75379;SDS011;65641;44.714;37.756;2024-03-02T03:36:41;6.68;;;5.50;;
75379;SDS011;65641;44.714;37.756;2024-03-02T03:37:46;5.45;;;3.92;;
75379;SDS011;65641;44.714;37.756;2024-03-02T03:38:49;5.85;;;5.13;;
75379;SDS011;65641;44.714;37.756;2024-03-02T03:39:53;5.22;;;4.65;;
75379;SDS011;65641;44.714;37.756;2024-03-02T03:40:56;6.93;;;5.18;;
75379;SDS011;65641;44.714;37.756;2024-03-02T03:42:00;6.65;;;5.03;;
75379;SDS011;65641;44.714;37.756;2024-03-02T03:43:03;5.43;;;3.85;;
75379;SDS011;65641;44.714;37.756;2024-03-02T03:44:07;6.47;;;5.15;;
75379;SDS011;65641;44.714;37.756;2024-03-02T03:45:10;7.65;;;6.13;;
75379;SDS011;65641;44.714;37.756;2024-03-02T03:46:14;6.88;;;5.00;;
75379;SDS011;65641;44.714;37.756;2024-03-02T03:47:17;5.78;;;5.05;;
75379;SDS011;65641;44.714;37.756;2024-03-02T03:48:21;6.53;;;5.18;;
75379;SDS011;65641;44.714;37.756;2024-03-02T03:49:24;8.50;;;3.88;;
75379;SDS011;65641;44.714;37.756;2024-03-02T03:50:28;6.38;;;5.18;;
75379;SDS011;65641;44.714;37.756;2024-03-02T03:51:32;6.63;;;5.25;;
75379;SDS011;65641;44.714;37.756;2024-03-02T03:52:35;6.53;;;5.15;;
75379;SDS011;65641;44.714;37.756;2024-03-02T03:53:39;6.88;;;5.20;;
75379;SDS011;65641;44.714;37.756;2024-03-02T03:54:42;7.63;;;5.35;;
75379;SDS011;65641;44.714;37.756;2024-03-02T03:55:47;7.30;;;4.35;;
75379;SDS011;65641;44.714;37.756;2024-03-02T03:56:52;7.05;;;4.43;;
75379;SDS011;65641;44.714;37.756;2024-03-02T03:57:55;8.40;;;6.38;;
75379;SDS011;65641;44.714;37.756;2024-03-02T03:58:59;8.73;;;5.68;;
75379;SDS011;65641;44.714;37.756;2024-03-02T04:00:03;5.95;;;4.00;;
75379;SDS011;65641;44.714;37.756;2024-03-02T04:01:13;8.40;;;7.07;;
75379;SDS011;65641;44.714;37.756;2024-03-02T04:02:17;6.82;;;5.25;;
75379;SDS011;65641;44.714;37.756;2024-03-02T04:03:20;8.35;;;6.70;;
75379;SDS011;65641;44.714;37.756;2024-03-02T04:04:24;7.78;;;6.05;;
75379;SDS011;65641;44.714;37.756;2024-03-02T04:05:27;7.07;;;5.72;;
75379;SDS011;65641;44.714;37.756;2024-03-02T04:06:31;8.18;;;5.97;;
75379;SDS011;65641;44.714;37.756;2024-03-02T04:07:35;6.40;;;5.70;;
75379;SDS011;65641;44.714;37.756;2024-03-02T04:08:46;8.68;;;5.60;;
75379;SDS011;65641;44.714;37.756;2024-03-02T04:09:49;8.00;;;6.70;;
75379;SDS011;65641;44.714;37.756;2024-03-02T04:10:53;7.47;;;5.95;;
75379;SDS011;65641;44.714;37.756;2024-03-02T04:11:57;8.88;;;6.28;;
75379;SDS011;65641;44.714;37.756;2024-03-02T04:13:00;8.50;;;6.38;;
75379;SDS011;65641;44.714;37.756;2024-03-02T04:14:04;9.75;;;5.70;;
75379;SDS011;65641;44.714;37.756;2024-03-02T04:15:09;8.90;;;5.80;;
75379;SDS011;65641;44.714;37.756;2024-03-02T04:16:12;8.88;;;6.40;;
75379;SDS011;65641;44.714;37.756;2024-03-02T04:17:16;7.85;;;5.70;;
75379;SDS011;65641;44.714;37.756;2024-03-02T04:18:20;8.32;;;5.53;;
75379;SDS011;65641;44.714;37.756;2024-03-02T04:19:23;9.93;;;6.03;;
75379;SDS011;65641;44.714;37.756;2024-03-02T04:20:28;7.72;;;5.88;;
75379;SDS011;65641;44.714;37.756;2024-03-02T04:21:33;8.52;;;6.35;;
75379;SDS011;65641;44.714;37.756;2024-03-02T04:22:36;9.25;;;6.10;;
75379;SDS011;65641;44.714;37.756;2024-03-02T04:23:40;7.55;;;5.97;;
75379;SDS011;65641;44.714;37.756;2024-03-02T04:24:43;8.50;;;5.68;;
75379;SDS011;65641;44.714;37.756;2024-03-02T04:25:47;10.60;;;5.40;;
75379;SDS011;65641;44.714;37.756;2024-03-02T04:26:50;7.68;;;6.10;;
75379;SDS011;65641;44.714;37.756;2024-03-02T04:27:54;7.68;;;6.10;;
75379;SDS011;65641;44.714;37.756;2024-03-02T04:28:57;7.88;;;4.97;;
75379;SDS011;65641;44.714;37.756;2024-03-02T04:30:01;9.02;;;6.35;;
75379;SDS011;65641;44.714;37.756;2024-03-02T04:31:05;9.20;;;7.00;;
75379;SDS011;65641;44.714;37.756;2024-03-02T04:32:08;9.55;;;6.03;;
75379;SDS011;65641;44.714;37.756;2024-03-02T04:33:12;9.43;;;6.43;;
75379;SDS011;65641;44.714;37.756;2024-03-02T04:34:15;8.07;;;6.38;;
75379;SDS011;65641;44.714;37.756;2024-03-02T04:35:19;7.10;;;5.97;;
75379;SDS011;65641;44.714;37.756;2024-03-02T04:36:22;7.65;;;5.78;;
75379;SDS011;65641;44.714;37.756;2024-03-02T04:37:26;8.68;;;6.78;;
75379;SDS011;65641;44.714;37.756;2024-03-02T04:38:30;7.10;;;6.32;;
75379;SDS011;65641;44.714;37.756;2024-03-02T04:39:35;8.30;;;6.55;;
75379;SDS011;65641;44.714;37.756;2024-03-02T04:40:39;9.02;;;6.32;;
75379;SDS011;65641;44.714;37.756;2024-03-02T04:41:42;9.68;;;6.72;;
75379;SDS011;65641;44.714;37.756;2024-03-02T04:42:46;10.20;;;7.13;;
75379;SDS011;65641;44.714;37.756;2024-03-02T04:43:49;8.70;;;6.53;;
75379;SDS011;65641;44.714;37.756;2024-03-02T04:44:53;7.85;;;4.85;;
75379;SDS011;65641;44.714;37.756;2024-03-02T04:45:56;10.43;;;6.28;;
75379;SDS011;65641;44.714;37.756;2024-03-02T04:47:01;9.15;;;6.95;;
75379;SDS011;65641;44.714;37.756;2024-03-02T04:48:05;8.40;;;6.50;;
75379;SDS011;65641;44.714;37.756;2024-03-02T04:49:09;9.20;;;6.78;;
75379;SDS011;65641;44.714;37.756;2024-03-02T04:50:13;9.07;;;6.55;;
75379;SDS011;65641;44.714;37.756;2024-03-02T04:51:17;8.55;;;5.32;;
75379;SDS011;65641;44.714;37.756;2024-03-02T04:52:20;9.90;;;5.10;;
75379;SDS011;65641;44.714;37.756;2024-03-02T04:53:24;10.18;;;6.60;;
75379;SDS011;65641;44.714;37.756;2024-03-02T04:54:28;8.82;;;5.50;;
75379;SDS011;65641;44.714;37.756;2024-03-02T04:55:31;7.95;;;6.50;;
75379;SDS011;65641;44.714;37.756;2024-03-02T04:56:58;8.57;;;5.10;;
75379;SDS011;65641;44.714;37.756;2024-03-02T04:58:01;9.10;;;6.70;;
75379;SDS011;65641;44.714;37.756;2024-03-02T04:59:05;10.98;;;8.30;;
75379;SDS011;65641;44.714;37.756;2024-03-02T05:00:09;9.18;;;6.05;;
75379;SDS011;65641;44.714;37.756;2024-03-02T05:01:13;9.25;;;7.68;;
75379;SDS011;65641;44.714;37.756;2024-03-02T05:02:19;8.63;;;6.90;;
75379;SDS011;65641;44.714;37.756;2024-03-02T05:03:23;8.05;;;5.10;;
75379;SDS011;65641;44.714;37.756;2024-03-02T05:04:27;10.23;;;5.10;;
75379;SDS011;65641;44.714;37.756;2024-03-02T05:05:31;9.38;;;7.00;;
75379;SDS011;65641;44.714;37.756;2024-03-02T05:06:34;11.95;;;7.68;;
75379;SDS011;65641;44.714;37.756;2024-03-02T05:07:38;8.32;;;6.88;;
75379;SDS011;65641;44.714;37.756;2024-03-02T05:08:41;10.30;;;8.13;;
75379;SDS011;65641;44.714;37.756;2024-03-02T05:09:47;8.90;;;6.85;;
75379;SDS011;65641;44.714;37.756;2024-03-02T05:10:51;9.32;;;7.57;;
75379;SDS011;65641;44.714;37.756;2024-03-02T05:11:54;8.80;;;6.78;;
75379;SDS011;65641;44.714;37.756;2024-03-02T05:13:17;9.30;;;6.80;;
75379;SDS011;65641;44.714;37.756;2024-03-02T05:14:20;8.50;;;6.43;;
75379;SDS011;65641;44.714;37.756;2024-03-02T05:15:24;8.80;;;5.22;;
75379;SDS011;65641;44.714;37.756;2024-03-02T05:16:27;8.63;;;6.72;;
75379;SDS011;65641;44.714;37.756;2024-03-02T05:17:31;10.25;;;8.13;;
75379;SDS011;65641;44.714;37.756;2024-03-02T05:18:34;10.35;;;7.60;;
75379;SDS011;65641;44.714;37.756;2024-03-02T05:19:40;9.82;;;7.82;;
75379;SDS011;65641;44.714;37.756;2024-03-02T05:20:43;8.90;;;7.30;;
75379;SDS011;65641;44.714;37.756;2024-03-02T05:21:47;8.50;;;6.63;;
75379;SDS011;65641;44.714;37.756;2024-03-02T05:22:51;8.85;;;5.82;;
75379;SDS011;65641;44.714;37.756;2024-03-02T05:23:55;11.82;;;8.35;;
75379;SDS011;65641;44.714;37.756;2024-03-02T05:24:58;9.63;;;6.50;;
75379;SDS011;65641;44.714;37.756;2024-03-02T05:26:06;9.52;;;7.13;;
75379;SDS011;65641;44.714;37.756;2024-03-02T05:27:09;9.98;;;7.03;;
75379;SDS011;65641;44.714;37.756;2024-03-02T05:28:13;8.95;;;7.10;;
75379;SDS011;65641;44.714;37.756;2024-03-02T05:29:16;8.52;;;6.82;;
75379;SDS011;65641;44.714;37.756;2024-03-02T05:30:20;11.05;;;7.85;;
75379;SDS011;65641;44.714;37.756;2024-03-02T05:31:23;10.45;;;7.90;;
75379;SDS011;65641;44.714;37.756;2024-03-02T05:32:27;9.82;;;6.03;;
75379;SDS011;65641;44.714;37.756;2024-03-02T05:33:30;11.27;;;7.93;;
75379;SDS011;65641;44.714;37.756;2024-03-02T05:34:36;9.45;;;7.50;;
75379;SDS011;65641;44.714;37.756;2024-03-02T05:35:39;10.52;;;7.78;;
75379;SDS011;65641;44.714;37.756;2024-03-02T05:36:43;9.35;;;7.78;;
75379;SDS011;65641;44.714;37.756;2024-03-02T05:37:46;10.13;;;7.53;;
75379;SDS011;65641;44.714;37.756;2024-03-02T05:38:50;10.00;;;6.72;;
75379;SDS011;65641;44.714;37.756;2024-03-02T05:39:53;9.40;;;8.43;;
75379;SDS011;65641;44.714;37.756;2024-03-02T05:40:57;10.90;;;7.65;;
75379;SDS011;65641;44.714;37.756;2024-03-02T05:42:00;9.20;;;7.80;;
75379;SDS011;65641;44.714;37.756;2024-03-02T05:43:04;9.82;;;7.00;;
75379;SDS011;65641;44.714;37.756;2024-03-02T05:44:08;10.77;;;7.63;;
75379;SDS011;65641;44.714;37.756;2024-03-02T05:45:11;11.90;;;8.32;;
75379;SDS011;65641;44.714;37.756;2024-03-02T05:46:15;10.43;;;7.97;;
75379;SDS011;65641;44.714;37.756;2024-03-02T05:47:18;9.32;;;6.88;;
75379;SDS011;65641;44.714;37.756;2024-03-02T05:48:22;9.50;;;7.28;;
75379;SDS011;65641;44.714;37.756;2024-03-02T05:49:25;9.13;;;6.53;;
75379;SDS011;65641;44.714;37.756;2024-03-02T05:50:29;9.80;;;8.63;;
75379;SDS011;65641;44.714;37.756;2024-03-02T05:51:32;10.30;;;7.45;;
75379;SDS011;65641;44.714;37.756;2024-03-02T05:52:36;8.95;;;7.47;;
75379;SDS011;65641;44.714;37.756;2024-03-02T05:53:40;10.55;;;7.80;;
75379;SDS011;65641;44.714;37.756;2024-03-02T05:54:43;8.77;;;7.22;;
75379;SDS011;65641;44.714;37.756;2024-03-02T05:55:47;11.20;;;7.90;;
75379;SDS011;65641;44.714;37.756;2024-03-02T05:56:56;10.50;;;7.35;;
75379;SDS011;65641;44.714;37.756;2024-03-02T05:57:59;10.35;;;7.72;;
75379;SDS011;65641;44.714;37.756;2024-03-02T05:59:06;10.73;;;7.78;;
75379;SDS011;65641;44.714;37.756;2024-03-02T06:00:16;10.60;;;7.70;;
75379;SDS011;65641;44.714;37.756;2024-03-02T06:01:20;8.88;;;5.85;;
75379;SDS011;65641;44.714;37.756;2024-03-02T06:02:32;10.60;;;8.23;;
75379;SDS011;65641;44.714;37.756;2024-03-02T06:03:38;10.60;;;7.47;;
75379;SDS011;65641;44.714;37.756;2024-03-02T06:04:41;9.48;;;7.80;;
75379;SDS011;65641;44.714;37.756;2024-03-02T06:05:45;9.88;;;8.07;;
75379;SDS011;65641;44.714;37.756;2024-03-02T06:06:48;9.85;;;7.10;;
75379;SDS011;65641;44.714;37.756;2024-03-02T06:07:52;9.77;;;7.25;;
75379;SDS011;65641;44.714;37.756;2024-03-02T06:08:56;10.05;;;7.57;;
75379;SDS011;65641;44.714;37.756;2024-03-02T06:09:59;10.25;;;8.18;;
75379;SDS011;65641;44.714;37.756;2024-03-02T06:11:05;9.32;;;7.75;;
75379;SDS011;65641;44.714;37.756;2024-03-02T06:12:09;10.18;;;7.90;;
75379;SDS011;65641;44.714;37.756;2024-03-02T06:13:12;9.75;;;7.80;;
75379;SDS011;65641;44.714;37.756;2024-03-02T06:14:15;9.25;;;7.50;;
75379;SDS011;65641;44.714;37.756;2024-03-02T06:15:19;11.93;;;8.88;;
75379;SDS011;65641;44.714;37.756;2024-03-02T06:16:23;10.75;;;8.25;;
75379;SDS011;65641;44.714;37.756;2024-03-02T06:17:26;11.98;;;8.27;;
75379;SDS011;65641;44.714;37.756;2024-03-02T06:18:30;9.63;;;6.13;;
75379;SDS011;65641;44.714;37.756;2024-03-02T06:19:34;12.93;;;8.40;;
75379;SDS011;65641;44.714;37.756;2024-03-02T06:20:37;10.80;;;8.27;;
75379;SDS011;65641;44.714;37.756;2024-03-02T06:21:41;9.95;;;6.40;;
75379;SDS011;65641;44.714;37.756;2024-03-02T06:22:44;9.35;;;6.30;;
75379;SDS011;65641;44.714;37.756;2024-03-02T06:23:48;11.13;;;8.23;;